sensor_id;sensor_type;location;lat;lon;timestamp;P1;durP1;ratioP1;P2;durP2;ratioP2
43552;SDS011;29153;42.696;23.218;2022-11-14T00:00:50;29.85;;;11.18;;
43552;SDS011;29153;42.696;23.218;2022-11-14T00:03:18;27.22;;;11.93;;
43552;SDS011;29153;42.696;23.218;2022-11-14T00:05:45;30.30;;;11.80;;
43552;SDS011;29153;42.696;23.218;2022-11-14T00:08:17;27.93;;;11.18;;
43552;SDS011;29153;42.696;23.218;2022-11-14T00:10:47;28.77;;;11.53;;
43552;SDS011;29153;42.696;23.218;2022-11-14T00:13:16;33.48;;;12.78;;
43552;SDS011;29153;42.696;23.218;2022-11-14T00:15:47;29.00;;;12.47;;
43552;SDS011;29153;42.696;23.218;2022-11-14T00:18:15;30.40;;;12.33;;
43552;SDS011;29153;42.696;23.218;2022-11-14T00:20:43;26.90;;;12.58;;
43552;SDS011;29153;42.696;23.218;2022-11-14T00:23:15;30.97;;;12.70;;
43552;SDS011;29153;42.696;23.218;2022-11-14T00:25:43;28.02;;;11.38;;
43552;SDS011;29153;42.696;23.218;2022-11-14T00:28:11;25.95;;;10.65;;
43552;SDS011;29153;42.696;23.218;2022-11-14T00:30:39;26.68;;;12.15;;
43552;SDS011;29153;42.696;23.218;2022-11-14T00:33:06;28.80;;;12.28;;
43552;SDS011;29153;42.696;23.218;2022-11-14T00:35:34;26.52;;;10.00;;
43552;SDS011;29153;42.696;23.218;2022-11-14T00:38:01;29.27;;;11.83;;
43552;SDS011;29153;42.696;23.218;2022-11-14T00:40:29;28.02;;;11.78;;
43552;SDS011;29153;42.696;23.218;2022-11-14T00:42:56;29.72;;;12.30;;
43552;SDS011;29153;42.696;23.218;2022-11-14T00:45:24;31.90;;;11.88;;
43552;SDS011;29153;42.696;23.218;2022-11-14T00:47:51;24.85;;;11.43;;
43552;SDS011;29153;42.696;23.218;2022-11-14T00:50:19;25.68;;;11.48;;
43552;SDS011;29153;42.696;23.218;2022-11-14T00:52:47;32.17;;;13.05;;
43552;SDS011;29153;42.696;23.218;2022-11-14T00:55:14;29.77;;;12.78;;
43552;SDS011;29153;42.696;23.218;2022-11-14T00:57:42;30.12;;;11.80;;
43552;SDS011;29153;42.696;23.218;2022-11-14T01:00:11;29.60;;;11.93;;
43552;SDS011;29153;42.696;23.218;2022-11-14T01:02:39;30.40;;;12.23;;
43552;SDS011;29153;42.696;23.218;2022-11-14T01:05:06;28.90;;;12.23;;
43552;SDS011;29153;42.696;23.218;2022-11-14T01:07:34;27.62;;;10.80;;
43552;SDS011;29153;42.696;23.218;2022-11-14T01:10:01;33.28;;;12.03;;
43552;SDS011;29153;42.696;23.218;2022-11-14T01:12:29;29.42;;;11.60;;
43552;SDS011;29153;42.696;23.218;2022-11-14T01:14:57;25.32;;;11.20;;
43552;SDS011;29153;42.696;23.218;2022-11-14T01:17:24;29.90;;;11.68;;
43552;SDS011;29153;42.696;23.218;2022-11-14T01:19:53;27.02;;;12.15;;
43552;SDS011;29153;42.696;23.218;2022-11-14T01:22:21;30.70;;;10.88;;
43552;SDS011;29153;42.696;23.218;2022-11-14T01:24:48;24.15;;;10.93;;
43552;SDS011;29153;42.696;23.218;2022-11-14T01:27:16;27.82;;;11.78;;
43552;SDS011;29153;42.696;23.218;2022-11-14T01:29:43;24.60;;;10.40;;
43552;SDS011;29153;42.696;23.218;2022-11-14T01:32:11;29.37;;;11.45;;
43552;SDS011;29153;42.696;23.218;2022-11-14T01:34:38;28.07;;;12.60;;
43552;SDS011;29153;42.696;23.218;2022-11-14T01:37:06;24.35;;;11.48;;
43552;SDS011;29153;42.696;23.218;2022-11-14T01:39:34;27.62;;;10.40;;
43552;SDS011;29153;42.696;23.218;2022-11-14T01:42:01;24.15;;;10.05;;
43552;SDS011;29153;42.696;23.218;2022-11-14T01:44:43;27.20;;;11.40;;
43552;SDS011;29153;42.696;23.218;2022-11-14T01:47:08;27.98;;;11.73;;
43552;SDS011;29153;42.696;23.218;2022-11-14T01:49:38;25.92;;;10.00;;
43552;SDS011;29153;42.696;23.218;2022-11-14T01:52:09;26.97;;;11.20;;
43552;SDS011;29153;42.696;23.218;2022-11-14T01:54:42;24.37;;;10.45;;
43552;SDS011;29153;42.696;23.218;2022-11-14T01:57:11;28.80;;;11.33;;
43552;SDS011;29153;42.696;23.218;2022-11-14T01:59:42;27.13;;;11.95;;
43552;SDS011;29153;42.696;23.218;2022-11-14T02:02:23;27.22;;;11.03;;
43552;SDS011;29153;42.696;23.218;2022-11-14T02:04:48;28.70;;;11.65;;
43552;SDS011;29153;42.696;23.218;2022-11-14T02:07:16;29.23;;;12.25;;
43552;SDS011;29153;42.696;23.218;2022-11-14T02:09:45;36.23;;;13.15;;
43552;SDS011;29153;42.696;23.218;2022-11-14T02:12:15;32.10;;;12.88;;
43552;SDS011;29153;42.696;23.218;2022-11-14T02:14:46;30.43;;;12.98;;
43552;SDS011;29153;42.696;23.218;2022-11-14T02:17:15;28.65;;;12.68;;
43552;SDS011;29153;42.696;23.218;2022-11-14T02:19:53;30.65;;;11.60;;
43552;SDS011;29153;42.696;23.218;2022-11-14T02:22:18;32.58;;;12.65;;
43552;SDS011;29153;42.696;23.218;2022-11-14T02:24:45;27.15;;;10.48;;
43552;SDS011;29153;42.696;23.218;2022-11-14T02:27:13;28.45;;;11.40;;
43552;SDS011;29153;42.696;23.218;2022-11-14T02:29:41;28.23;;;11.83;;
43552;SDS011;29153;42.696;23.218;2022-11-14T02:32:09;29.60;;;11.97;;
43552;SDS011;29153;42.696;23.218;2022-11-14T02:34:37;26.17;;;11.53;;
43552;SDS011;29153;42.696;23.218;2022-11-14T02:37:04;25.55;;;10.38;;
43552;SDS011;29153;42.696;23.218;2022-11-14T02:39:33;24.87;;;10.75;;
43552;SDS011;29153;42.696;23.218;2022-11-14T02:42:00;26.75;;;11.50;;
43552;SDS011;29153;42.696;23.218;2022-11-14T02:44:28;23.47;;;11.25;;
43552;SDS011;29153;42.696;23.218;2022-11-14T02:46:55;21.87;;;10.60;;
43552;SDS011;29153;42.696;23.218;2022-11-14T02:49:23;24.65;;;11.33;;
43552;SDS011;29153;42.696;23.218;2022-11-14T02:51:50;27.15;;;10.93;;
43552;SDS011;29153;42.696;23.218;2022-11-14T02:54:18;24.23;;;10.53;;
43552;SDS011;29153;42.696;23.218;2022-11-14T02:56:46;27.20;;;10.45;;
43552;SDS011;29153;42.696;23.218;2022-11-14T02:59:13;29.30;;;10.78;;
43552;SDS011;29153;42.696;23.218;2022-11-14T03:01:41;23.65;;;11.00;;
43552;SDS011;29153;42.696;23.218;2022-11-14T03:04:08;22.67;;;10.20;;
43552;SDS011;29153;42.696;23.218;2022-11-14T03:06:36;24.35;;;10.43;;
43552;SDS011;29153;42.696;23.218;2022-11-14T03:09:03;25.60;;;10.88;;
43552;SDS011;29153;42.696;23.218;2022-11-14T03:11:31;23.57;;;10.20;;
43552;SDS011;29153;42.696;23.218;2022-11-14T03:13:59;26.27;;;10.00;;
43552;SDS011;29153;42.696;23.218;2022-11-14T03:16:27;22.40;;;9.98;;
43552;SDS011;29153;42.696;23.218;2022-11-14T03:18:54;25.50;;;10.28;;
43552;SDS011;29153;42.696;23.218;2022-11-14T03:21:22;23.18;;;9.63;;
43552;SDS011;29153;42.696;23.218;2022-11-14T03:23:50;23.57;;;9.98;;
43552;SDS011;29153;42.696;23.218;2022-11-14T03:26:17;25.30;;;10.58;;
43552;SDS011;29153;42.696;23.218;2022-11-14T03:28:45;27.42;;;10.63;;
43552;SDS011;29153;42.696;23.218;2022-11-14T03:31:12;27.42;;;10.55;;
43552;SDS011;29153;42.696;23.218;2022-11-14T03:33:40;22.93;;;9.23;;
43552;SDS011;29153;42.696;23.218;2022-11-14T03:36:08;22.35;;;9.08;;
43552;SDS011;29153;42.696;23.218;2022-11-14T03:38:36;22.62;;;10.10;;
43552;SDS011;29153;42.696;23.218;2022-11-14T03:41:03;26.68;;;9.53;;
43552;SDS011;29153;42.696;23.218;2022-11-14T03:43:32;30.30;;;11.33;;
43552;SDS011;29153;42.696;23.218;2022-11-14T03:46:00;27.00;;;11.22;;
43552;SDS011;29153;42.696;23.218;2022-11-14T03:48:29;25.43;;;10.80;;
43552;SDS011;29153;42.696;23.218;2022-11-14T03:50:57;29.25;;;11.45;;
43552;SDS011;29153;42.696;23.218;2022-11-14T03:53:24;26.60;;;11.18;;
43552;SDS011;29153;42.696;23.218;2022-11-14T03:55:52;31.75;;;11.38;;
43552;SDS011;29153;42.696;23.218;2022-11-14T03:58:20;28.23;;;11.45;;
43552;SDS011;29153;42.696;23.218;2022-11-14T04:00:48;27.00;;;11.28;;
43552;SDS011;29153;42.696;23.218;2022-11-14T04:03:15;30.23;;;12.03;;
43552;SDS011;29153;42.696;23.218;2022-11-14T04:05:43;26.17;;;11.73;;
43552;SDS011;29153;42.696;23.218;2022-11-14T04:08:11;26.45;;;11.18;;
43552;SDS011;29153;42.696;23.218;2022-11-14T04:10:38;24.45;;;11.57;;
43552;SDS011;29153;42.696;23.218;2022-11-14T04:13:06;24.12;;;11.30;;
43552;SDS011;29153;42.696;23.218;2022-11-14T04:15:34;31.12;;;12.37;;
43552;SDS011;29153;42.696;23.218;2022-11-14T04:18:02;26.97;;;11.95;;
43552;SDS011;29153;42.696;23.218;2022-11-14T04:20:29;27.13;;;11.05;;
43552;SDS011;29153;42.696;23.218;2022-11-14T04:22:57;26.50;;;11.08;;
43552;SDS011;29153;42.696;23.218;2022-11-14T04:25:24;25.17;;;11.15;;
43552;SDS011;29153;42.696;23.218;2022-11-14T04:27:52;24.25;;;10.72;;
43552;SDS011;29153;42.696;23.218;2022-11-14T04:30:19;27.65;;;11.53;;
43552;SDS011;29153;42.696;23.218;2022-11-14T04:32:47;31.02;;;12.55;;
43552;SDS011;29153;42.696;23.218;2022-11-14T04:35:15;29.95;;;12.43;;
43552;SDS011;29153;42.696;23.218;2022-11-14T04:37:42;30.80;;;11.53;;
43552;SDS011;29153;42.696;23.218;2022-11-14T04:40:10;25.97;;;10.72;;
43552;SDS011;29153;42.696;23.218;2022-11-14T04:42:37;25.65;;;10.60;;
43552;SDS011;29153;42.696;23.218;2022-11-14T04:45:05;29.55;;;11.97;;
43552;SDS011;29153;42.696;23.218;2022-11-14T04:47:34;28.60;;;11.22;;
43552;SDS011;29153;42.696;23.218;2022-11-14T04:50:01;31.35;;;10.90;;
43552;SDS011;29153;42.696;23.218;2022-11-14T04:52:29;27.00;;;10.88;;
43552;SDS011;29153;42.696;23.218;2022-11-14T04:54:57;28.10;;;11.15;;
43552;SDS011;29153;42.696;23.218;2022-11-14T04:57:24;30.62;;;11.63;;
43552;SDS011;29153;42.696;23.218;2022-11-14T04:59:52;25.88;;;10.23;;
43552;SDS011;29153;42.696;23.218;2022-11-14T05:02:20;28.02;;;11.88;;
43552;SDS011;29153;42.696;23.218;2022-11-14T05:04:47;31.90;;;11.63;;
43552;SDS011;29153;42.696;23.218;2022-11-14T05:07:15;32.05;;;11.70;;
43552;SDS011;29153;42.696;23.218;2022-11-14T05:09:42;29.95;;;11.40;;
43552;SDS011;29153;42.696;23.218;2022-11-14T05:12:10;35.55;;;13.98;;
43552;SDS011;29153;42.696;23.218;2022-11-14T05:14:37;32.42;;;12.90;;
43552;SDS011;29153;42.696;23.218;2022-11-14T05:17:05;30.92;;;13.83;;
43552;SDS011;29153;42.696;23.218;2022-11-14T05:19:32;39.18;;;12.95;;
43552;SDS011;29153;42.696;23.218;2022-11-14T05:22:00;44.77;;;14.30;;
43552;SDS011;29153;42.696;23.218;2022-11-14T05:24:28;39.92;;;14.40;;
43552;SDS011;29153;42.696;23.218;2022-11-14T05:26:55;41.77;;;13.58;;
43552;SDS011;29153;42.696;23.218;2022-11-14T05:29:24;37.13;;;13.58;;
43552;SDS011;29153;42.696;23.218;2022-11-14T05:31:51;40.95;;;14.90;;
43552;SDS011;29153;42.696;23.218;2022-11-14T05:34:19;38.10;;;14.58;;
43552;SDS011;29153;42.696;23.218;2022-11-14T05:36:46;46.53;;;14.98;;
43552;SDS011;29153;42.696;23.218;2022-11-14T05:39:14;44.77;;;15.53;;
43552;SDS011;29153;42.696;23.218;2022-11-14T05:41:42;50.38;;;16.17;;
43552;SDS011;29153;42.696;23.218;2022-11-14T05:44:10;51.23;;;16.27;;
43552;SDS011;29153;42.696;23.218;2022-11-14T05:46:37;67.37;;;17.65;;
43552;SDS011;29153;42.696;23.218;2022-11-14T05:49:05;70.25;;;18.00;;
43552;SDS011;29153;42.696;23.218;2022-11-14T05:51:32;61.58;;;18.23;;
43552;SDS011;29153;42.696;23.218;2022-11-14T05:54:00;82.02;;;19.90;;
43552;SDS011;29153;42.696;23.218;2022-11-14T05:56:27;66.55;;;18.92;;
43552;SDS011;29153;42.696;23.218;2022-11-14T05:58:55;123.42;;;24.57;;
43552;SDS011;29153;42.696;23.218;2022-11-14T06:01:23;102.78;;;23.32;;
43552;SDS011;29153;42.696;23.218;2022-11-14T06:03:50;95.72;;;23.95;;
43552;SDS011;29153;42.696;23.218;2022-11-14T06:06:19;80.05;;;23.32;;
43552;SDS011;29153;42.696;23.218;2022-11-14T06:08:47;116.53;;;25.15;;
43552;SDS011;29153;42.696;23.218;2022-11-14T06:11:16;128.50;;;24.27;;
43552;SDS011;29153;42.696;23.218;2022-11-14T06:13:45;112.03;;;23.65;;
43552;SDS011;29153;42.696;23.218;2022-11-14T06:16:19;120.17;;;27.82;;
43552;SDS011;29153;42.696;23.218;2022-11-14T06:18:43;124.27;;;25.88;;
43552;SDS011;29153;42.696;23.218;2022-11-14T06:21:11;111.77;;;27.05;;
43552;SDS011;29153;42.696;23.218;2022-11-14T06:23:44;102.17;;;26.90;;
43552;SDS011;29153;42.696;23.218;2022-11-14T06:26:22;103.38;;;26.40;;
43552;SDS011;29153;42.696;23.218;2022-11-14T06:28:51;106.75;;;27.22;;
43552;SDS011;29153;42.696;23.218;2022-11-14T06:31:19;109.05;;;28.35;;
43552;SDS011;29153;42.696;23.218;2022-11-14T06:33:48;98.30;;;26.75;;
43552;SDS011;29153;42.696;23.218;2022-11-14T06:36:16;110.03;;;27.27;;
43552;SDS011;29153;42.696;23.218;2022-11-14T06:38:44;114.67;;;25.02;;
43552;SDS011;29153;42.696;23.218;2022-11-14T06:43:45;110.70;;;27.58;;
43552;SDS011;29153;42.696;23.218;2022-11-14T06:46:15;95.47;;;24.55;;
43552;SDS011;29153;42.696;23.218;2022-11-14T06:48:45;101.58;;;26.02;;
43552;SDS011;29153;42.696;23.218;2022-11-14T06:51:14;99.67;;;27.52;;
43552;SDS011;29153;42.696;23.218;2022-11-14T06:53:43;101.58;;;25.57;;
43552;SDS011;29153;42.696;23.218;2022-11-14T06:56:12;94.30;;;24.12;;
43552;SDS011;29153;42.696;23.218;2022-11-14T06:58:45;95.25;;;26.23;;
43552;SDS011;29153;42.696;23.218;2022-11-14T07:01:23;109.63;;;26.50;;
43552;SDS011;29153;42.696;23.218;2022-11-14T07:03:48;113.22;;;27.80;;
43552;SDS011;29153;42.696;23.218;2022-11-14T07:06:17;122.95;;;28.32;;
43552;SDS011;29153;42.696;23.218;2022-11-14T07:08:50;102.38;;;27.32;;
43552;SDS011;29153;42.696;23.218;2022-11-14T07:11:22;126.47;;;29.45;;
43552;SDS011;29153;42.696;23.218;2022-11-14T07:13:53;86.95;;;25.92;;
43552;SDS011;29153;42.696;23.218;2022-11-14T07:16:26;114.57;;;26.23;;
43552;SDS011;29153;42.696;23.218;2022-11-14T07:18:56;88.42;;;26.45;;
43552;SDS011;29153;42.696;23.218;2022-11-14T07:21:25;101.90;;;29.10;;
43552;SDS011;29153;42.696;23.218;2022-11-14T07:23:54;101.97;;;28.05;;
43552;SDS011;29153;42.696;23.218;2022-11-14T07:26:22;107.52;;;26.20;;
43552;SDS011;29153;42.696;23.218;2022-11-14T07:28:50;92.57;;;27.05;;
43552;SDS011;29153;42.696;23.218;2022-11-14T07:31:18;117.28;;;29.77;;
43552;SDS011;29153;42.696;23.218;2022-11-14T07:33:46;108.87;;;28.75;;
43552;SDS011;29153;42.696;23.218;2022-11-14T07:36:14;95.90;;;25.75;;
43552;SDS011;29153;42.696;23.218;2022-11-14T07:38:43;91.45;;;26.75;;
43552;SDS011;29153;42.696;23.218;2022-11-14T07:41:11;110.03;;;26.37;;
43552;SDS011;29153;42.696;23.218;2022-11-14T07:43:41;98.15;;;27.52;;
43552;SDS011;29153;42.696;23.218;2022-11-14T07:46:16;93.85;;;27.07;;
43552;SDS011;29153;42.696;23.218;2022-11-14T07:48:44;97.65;;;30.10;;
43552;SDS011;29153;42.696;23.218;2022-11-14T07:51:13;96.57;;;28.25;;
43552;SDS011;29153;42.696;23.218;2022-11-14T07:53:45;90.53;;;27.48;;
43552;SDS011;29153;42.696;23.218;2022-11-14T07:56:13;99.07;;;27.15;;
43552;SDS011;29153;42.696;23.218;2022-11-14T07:58:41;95.92;;;28.05;;
43552;SDS011;29153;42.696;23.218;2022-11-14T08:01:09;186.77;;;48.98;;
43552;SDS011;29153;42.696;23.218;2022-11-14T08:03:39;96.82;;;32.70;;
43552;SDS011;29153;42.696;23.218;2022-11-14T08:06:08;68.17;;;23.50;;
43552;SDS011;29153;42.696;23.218;2022-11-14T08:08:37;72.45;;;24.77;;
43552;SDS011;29153;42.696;23.218;2022-11-14T08:11:04;68.55;;;23.67;;
43552;SDS011;29153;42.696;23.218;2022-11-14T08:13:32;98.75;;;27.40;;
43552;SDS011;29153;42.696;23.218;2022-11-14T08:16:03;90.03;;;27.60;;
43552;SDS011;29153;42.696;23.218;2022-11-14T08:18:32;82.40;;;26.40;;
43552;SDS011;29153;42.696;23.218;2022-11-14T08:21:05;79.05;;;27.77;;
43552;SDS011;29153;42.696;23.218;2022-11-14T08:23:29;85.17;;;25.97;;
43552;SDS011;29153;42.696;23.218;2022-11-14T08:25:57;80.77;;;26.65;;
43552;SDS011;29153;42.696;23.218;2022-11-14T08:28:25;98.07;;;28.32;;
43552;SDS011;29153;42.696;23.218;2022-11-14T08:30:57;96.95;;;32.03;;
43552;SDS011;29153;42.696;23.218;2022-11-14T08:33:25;82.82;;;31.68;;
43552;SDS011;29153;42.696;23.218;2022-11-14T08:35:53;92.25;;;32.85;;
43552;SDS011;29153;42.696;23.218;2022-11-14T08:38:21;90.92;;;31.57;;
43552;SDS011;29153;42.696;23.218;2022-11-14T08:40:48;109.70;;;34.18;;
43552;SDS011;29153;42.696;23.218;2022-11-14T08:43:16;100.02;;;31.68;;
43552;SDS011;29153;42.696;23.218;2022-11-14T08:45:43;91.70;;;30.70;;
43552;SDS011;29153;42.696;23.218;2022-11-14T08:48:11;101.85;;;32.17;;
43552;SDS011;29153;42.696;23.218;2022-11-14T08:50:38;98.50;;;34.15;;
43552;SDS011;29153;42.696;23.218;2022-11-14T08:53:06;90.65;;;32.05;;
43552;SDS011;29153;42.696;23.218;2022-11-14T08:55:33;101.27;;;32.90;;
43552;SDS011;29153;42.696;23.218;2022-11-14T08:58:01;94.60;;;31.62;;
43552;SDS011;29153;42.696;23.218;2022-11-14T09:00:28;117.03;;;42.58;;
43552;SDS011;29153;42.696;23.218;2022-11-14T09:02:56;119.65;;;37.55;;
43552;SDS011;29153;42.696;23.218;2022-11-14T09:05:24;115.92;;;36.95;;
43552;SDS011;29153;42.696;23.218;2022-11-14T09:07:51;118.90;;;38.95;;
43552;SDS011;29153;42.696;23.218;2022-11-14T09:10:19;115.12;;;38.98;;
43552;SDS011;29153;42.696;23.218;2022-11-14T09:12:46;124.90;;;37.50;;
43552;SDS011;29153;42.696;23.218;2022-11-14T09:15:15;110.45;;;34.23;;
43552;SDS011;29153;42.696;23.218;2022-11-14T09:17:43;108.30;;;35.52;;
43552;SDS011;29153;42.696;23.218;2022-11-14T09:20:10;118.97;;;39.38;;
43552;SDS011;29153;42.696;23.218;2022-11-14T09:22:38;105.87;;;34.92;;
43552;SDS011;29153;42.696;23.218;2022-11-14T09:25:06;112.80;;;34.45;;
43552;SDS011;29153;42.696;23.218;2022-11-14T09:27:34;97.80;;;33.10;;
43552;SDS011;29153;42.696;23.218;2022-11-14T09:30:01;102.90;;;33.13;;
43552;SDS011;29153;42.696;23.218;2022-11-14T09:32:29;101.75;;;32.17;;
43552;SDS011;29153;42.696;23.218;2022-11-14T09:34:57;121.50;;;38.45;;
43552;SDS011;29153;42.696;23.218;2022-11-14T09:37:24;126.33;;;39.20;;
43552;SDS011;29153;42.696;23.218;2022-11-14T09:39:52;118.90;;;39.33;;
43552;SDS011;29153;42.696;23.218;2022-11-14T09:42:44;137.52;;;42.95;;
43552;SDS011;29153;42.696;23.218;2022-11-14T09:45:17;134.45;;;39.78;;
43552;SDS011;29153;42.696;23.218;2022-11-14T09:47:48;143.90;;;45.20;;
43552;SDS011;29153;42.696;23.218;2022-11-14T09:50:19;136.52;;;42.30;;
43552;SDS011;29153;42.696;23.218;2022-11-14T09:52:53;141.20;;;44.27;;
43552;SDS011;29153;42.696;23.218;2022-11-14T09:55:32;130.47;;;43.10;;
43552;SDS011;29153;42.696;23.218;2022-11-14T09:57:55;127.02;;;42.62;;
43552;SDS011;29153;42.696;23.218;2022-11-14T10:00:24;128.90;;;44.40;;
43552;SDS011;29153;42.696;23.218;2022-11-14T10:11:05;126.12;;;40.03;;
43552;SDS011;29153;42.696;23.218;2022-11-14T10:13:44;104.45;;;37.93;;
43552;SDS011;29153;42.696;23.218;2022-11-14T10:24:25;131.90;;;50.45;;
43552;SDS011;29153;42.696;23.218;2022-11-14T10:27:01;133.65;;;46.95;;
43552;SDS011;29153;42.696;23.218;2022-11-14T10:35:11;110.00;;;38.08;;
43552;SDS011;29153;42.696;23.218;2022-11-14T10:37:56;119.05;;;42.88;;
43552;SDS011;29153;42.696;23.218;2022-11-14T10:40:28;124.15;;;46.30;;
43552;SDS011;29153;42.696;23.218;2022-11-14T10:46:04;122.40;;;42.88;;
43552;SDS011;29153;42.696;23.218;2022-11-14T10:48:43;113.45;;;43.35;;
43552;SDS011;29153;42.696;23.218;2022-11-14T10:53:57;112.42;;;41.77;;
43552;SDS011;29153;42.696;23.218;2022-11-14T10:56:25;99.92;;;41.50;;
43552;SDS011;29153;42.696;23.218;2022-11-14T10:58:53;112.83;;;42.83;;
43552;SDS011;29153;42.696;23.218;2022-11-14T11:01:37;121.42;;;44.83;;
43552;SDS011;29153;42.696;23.218;2022-11-14T11:06:51;98.90;;;39.03;;
43552;SDS011;29153;42.696;23.218;2022-11-14T11:09:24;101.18;;;39.90;;
43552;SDS011;29153;42.696;23.218;2022-11-14T11:14:43;103.25;;;38.90;;
43552;SDS011;29153;42.696;23.218;2022-11-14T11:19:46;111.45;;;39.35;;
43552;SDS011;29153;42.696;23.218;2022-11-14T11:22:29;108.07;;;42.75;;
43552;SDS011;29153;42.696;23.218;2022-11-14T11:24:57;107.95;;;39.78;;
43552;SDS011;29153;42.696;23.218;2022-11-14T11:27:25;102.97;;;39.42;;
43552;SDS011;29153;42.696;23.218;2022-11-14T11:30:03;110.85;;;40.28;;
43552;SDS011;29153;42.696;23.218;2022-11-14T11:32:31;114.57;;;40.40;;
43552;SDS011;29153;42.696;23.218;2022-11-14T11:35:00;111.62;;;43.65;;
43552;SDS011;29153;42.696;23.218;2022-11-14T11:37:30;106.92;;;38.35;;
43552;SDS011;29153;42.696;23.218;2022-11-14T11:40:11;113.95;;;42.62;;
43552;SDS011;29153;42.696;23.218;2022-11-14T11:42:44;106.03;;;41.53;;
43552;SDS011;29153;42.696;23.218;2022-11-14T11:45:16;119.57;;;41.35;;
43552;SDS011;29153;42.696;23.218;2022-11-14T11:47:53;106.35;;;39.75;;
43552;SDS011;29153;42.696;23.218;2022-11-14T11:50:38;112.30;;;40.83;;
43552;SDS011;29153;42.696;23.218;2022-11-14T11:53:15;105.12;;;41.73;;
43552;SDS011;29153;42.696;23.218;2022-11-14T11:55:47;111.10;;;41.28;;
43552;SDS011;29153;42.696;23.218;2022-11-14T11:58:41;102.95;;;41.08;;
43552;SDS011;29153;42.696;23.218;2022-11-14T12:00:53;113.55;;;42.20;;
43552;SDS011;29153;42.696;23.218;2022-11-14T12:03:21;113.15;;;43.02;;
43552;SDS011;29153;42.696;23.218;2022-11-14T12:11:34;109.65;;;43.92;;
43552;SDS011;29153;42.696;23.218;2022-11-14T12:28:01;101.12;;;39.42;;
43552;SDS011;29153;42.696;23.218;2022-11-14T12:30:29;112.88;;;40.52;;
43552;SDS011;29153;42.696;23.218;2022-11-14T12:35:33;97.47;;;41.60;;
43552;SDS011;29153;42.696;23.218;2022-11-14T12:38:03;106.43;;;43.15;;
43552;SDS011;29153;42.696;23.218;2022-11-14T12:40:37;110.83;;;43.33;;
43552;SDS011;29153;42.696;23.218;2022-11-14T12:45:55;104.03;;;40.70;;
43552;SDS011;29153;42.696;23.218;2022-11-14T12:50:55;107.90;;;39.83;;
43552;SDS011;29153;42.696;23.218;2022-11-14T13:07:28;110.48;;;42.73;;
43552;SDS011;29153;42.696;23.218;2022-11-14T13:12:42;110.90;;;42.93;;
43552;SDS011;29153;42.696;23.218;2022-11-14T13:15:32;100.87;;;42.10;;
43552;SDS011;29153;42.696;23.218;2022-11-14T13:18:21;103.35;;;40.63;;
43552;SDS011;29153;42.696;23.218;2022-11-14T13:24:07;93.87;;;38.65;;
43552;SDS011;29153;42.696;23.218;2022-11-14T13:26:37;101.95;;;40.08;;
43552;SDS011;29153;42.696;23.218;2022-11-14T13:29:07;98.40;;;40.25;;
43552;SDS011;29153;42.696;23.218;2022-11-14T13:36:53;94.13;;;40.17;;
43552;SDS011;29153;42.696;23.218;2022-11-14T13:39:36;101.78;;;42.20;;
43552;SDS011;29153;42.696;23.218;2022-11-14T13:45:34;108.03;;;38.90;;
43552;SDS011;29153;42.696;23.218;2022-11-14T13:50:34;98.87;;;40.05;;
43552;SDS011;29153;42.696;23.218;2022-11-14T13:53:11;105.78;;;42.35;;
43552;SDS011;29153;42.696;23.218;2022-11-14T13:55:48;105.20;;;44.27;;
43552;SDS011;29153;42.696;23.218;2022-11-14T14:03:33;98.72;;;38.35;;
43552;SDS011;29153;42.696;23.218;2022-11-14T14:06:11;98.10;;;39.18;;
43552;SDS011;29153;42.696;23.218;2022-11-14T14:17:40;98.12;;;43.50;;
43552;SDS011;29153;42.696;23.218;2022-11-14T14:25:33;109.03;;;43.50;;
43552;SDS011;29153;42.696;23.218;2022-11-14T14:28:33;103.95;;;43.15;;
43552;SDS011;29153;42.696;23.218;2022-11-14T14:31:16;97.00;;;38.80;;
43552;SDS011;29153;42.696;23.218;2022-11-14T14:33:48;101.78;;;41.88;;
43552;SDS011;29153;42.696;23.218;2022-11-14T14:36:21;91.10;;;38.58;;
43552;SDS011;29153;42.696;23.218;2022-11-14T14:38:50;91.75;;;36.73;;
43552;SDS011;29153;42.696;23.218;2022-11-14T14:41:29;91.53;;;37.50;;
43552;SDS011;29153;42.696;23.218;2022-11-14T14:43:56;95.30;;;38.95;;
43552;SDS011;29153;42.696;23.218;2022-11-14T14:46:30;82.30;;;35.52;;
43552;SDS011;29153;42.696;23.218;2022-11-14T14:48:59;86.85;;;35.60;;
43552;SDS011;29153;42.696;23.218;2022-11-14T14:51:30;89.30;;;35.40;;
43552;SDS011;29153;42.696;23.218;2022-11-14T14:54:00;91.95;;;34.48;;
43552;SDS011;29153;42.696;23.218;2022-11-14T14:56:27;102.92;;;37.28;;
43552;SDS011;29153;42.696;23.218;2022-11-14T14:58:55;89.15;;;33.73;;
43552;SDS011;29153;42.696;23.218;2022-11-14T15:01:32;93.75;;;35.95;;
43552;SDS011;29153;42.696;23.218;2022-11-14T15:04:07;97.40;;;34.05;;
43552;SDS011;29153;42.696;23.218;2022-11-14T15:06:37;93.52;;;35.23;;
43552;SDS011;29153;42.696;23.218;2022-11-14T15:09:16;89.47;;;36.70;;
43552;SDS011;29153;42.696;23.218;2022-11-14T15:11:58;94.80;;;34.60;;
43552;SDS011;29153;42.696;23.218;2022-11-14T15:14:30;89.10;;;35.30;;
43552;SDS011;29153;42.696;23.218;2022-11-14T15:17:00;85.75;;;33.25;;
43552;SDS011;29153;42.696;23.218;2022-11-14T15:19:31;88.97;;;30.50;;
43552;SDS011;29153;42.696;23.218;2022-11-14T15:27:50;87.75;;;31.17;;
43552;SDS011;29153;42.696;23.218;2022-11-14T15:30:34;80.57;;;32.53;;
43552;SDS011;29153;42.696;23.218;2022-11-14T15:32:55;88.55;;;31.45;;
43552;SDS011;29153;42.696;23.218;2022-11-14T15:38:16;92.45;;;34.27;;
43552;SDS011;29153;42.696;23.218;2022-11-14T15:40:38;75.85;;;29.42;;
43552;SDS011;29153;42.696;23.218;2022-11-14T15:49:14;70.80;;;26.87;;
43552;SDS011;29153;42.696;23.218;2022-11-14T15:51:46;74.80;;;27.90;;
43552;SDS011;29153;42.696;23.218;2022-11-14T15:54:28;69.53;;;27.13;;
43552;SDS011;29153;42.696;23.218;2022-11-14T15:57:08;71.30;;;29.42;;
43552;SDS011;29153;42.696;23.218;2022-11-14T15:59:41;80.20;;;32.38;;
43552;SDS011;29153;42.696;23.218;2022-11-14T16:04:49;72.72;;;29.67;;
43552;SDS011;29153;42.696;23.218;2022-11-14T16:07:18;67.12;;;28.62;;
43552;SDS011;29153;42.696;23.218;2022-11-14T16:09:47;65.45;;;26.23;;
43552;SDS011;29153;42.696;23.218;2022-11-14T16:12:15;61.98;;;26.65;;
43552;SDS011;29153;42.696;23.218;2022-11-14T16:14:43;71.77;;;27.55;;
43552;SDS011;29153;42.696;23.218;2022-11-14T16:17:14;69.30;;;27.62;;
43552;SDS011;29153;42.696;23.218;2022-11-14T16:19:43;62.78;;;26.00;;
43552;SDS011;29153;42.696;23.218;2022-11-14T16:22:12;65.52;;;25.57;;
43552;SDS011;29153;42.696;23.218;2022-11-14T16:24:41;70.05;;;26.15;;
43552;SDS011;29153;42.696;23.218;2022-11-14T16:27:09;59.88;;;25.17;;
43552;SDS011;29153;42.696;23.218;2022-11-14T16:29:36;66.15;;;27.25;;
43552;SDS011;29153;42.696;23.218;2022-11-14T16:32:04;57.60;;;24.55;;
43552;SDS011;29153;42.696;23.218;2022-11-14T16:34:33;66.07;;;24.80;;